sensor_id;sensor_type;location;lat;lon;timestamp;temperature;humidity
9414;DHT22;4746;35.664;139.738;2024-03-06T00:01:21;5.10;99.90
9414;DHT22;4746;35.664;139.738;2024-03-06T00:03:48;5.00;99.90
9414;DHT22;4746;35.664;139.738;2024-03-06T00:06:16;5.00;99.90
9414;DHT22;4746;35.664;139.738;2024-03-06T00:08:43;5.00;99.90
9414;DHT22;4746;35.664;139.738;2024-03-06T00:11:11;5.10;99.90
9414;DHT22;4746;35.664;139.738;2024-03-06T00:13:38;5.10;99.90
9414;DHT22;4746;35.664;139.738;2024-03-06T00:16:06;5.00;99.90
9414;DHT22;4746;35.664;139.738;2024-03-06T00:18:33;5.10;99.90
9414;DHT22;4746;35.664;139.738;2024-03-06T00:21:01;5.00;99.90
9414;DHT22;4746;35.664;139.738;2024-03-06T00:23:28;5.10;99.90
9414;DHT22;4746;35.664;139.738;2024-03-06T00:25:57;5.10;99.90
9414;DHT22;4746;35.664;139.738;2024-03-06T00:28:30;5.00;99.90
9414;DHT22;4746;35.664;139.738;2024-03-06T00:30:58;5.00;99.90
9414;DHT22;4746;35.664;139.738;2024-03-06T00:33:28;5.10;99.90
9414;DHT22;4746;35.664;139.738;2024-03-06T00:35:56;5.10;99.90
9414;DHT22;4746;35.664;139.738;2024-03-06T00:38:26;5.10;99.90
9414;DHT22;4746;35.664;139.738;2024-03-06T00:40:53;5.20;99.90
9414;DHT22;4746;35.664;139.738;2024-03-06T00:43:24;5.20;99.90
9414;DHT22;4746;35.664;139.738;2024-03-06T00:45:52;5.20;99.90
9414;DHT22;4746;35.664;139.738;2024-03-06T00:48:20;5.20;99.90
9414;DHT22;4746;35.664;139.738;2024-03-06T00:50:48;5.30;99.90
9414;DHT22;4746;35.664;139.738;2024-03-06T00:53:15;5.30;99.90
9414;DHT22;4746;35.664;139.738;2024-03-06T00:55:43;5.40;99.90
9414;DHT22;4746;35.664;139.738;2024-03-06T00:58:11;5.40;99.90
9414;DHT22;4746;35.664;139.738;2024-03-06T01:00:38;5.40;99.90
9414;DHT22;4746;35.664;139.738;2024-03-06T01:03:08;5.50;99.90
9414;DHT22;4746;35.664;139.738;2024-03-06T01:05:35;5.60;99.90
9414;DHT22;4746;35.664;139.738;2024-03-06T01:08:03;5.50;99.90
9414;DHT22;4746;35.664;139.738;2024-03-06T01:10:33;5.50;99.90
9414;DHT22;4746;35.664;139.738;2024-03-06T01:13:02;5.60;99.90
9414;DHT22;4746;35.664;139.738;2024-03-06T01:15:29;5.60;99.90
9414;DHT22;4746;35.664;139.738;2024-03-06T01:17:57;5.60;99.90
9414;DHT22;4746;35.664;139.738;2024-03-06T01:20:24;5.60;99.90
9414;DHT22;4746;35.664;139.738;2024-03-06T01:22:52;5.60;99.90
9414;DHT22;4746;35.664;139.738;2024-03-06T01:25:20;5.70;99.90
9414;DHT22;4746;35.664;139.738;2024-03-06T01:27:48;5.70;99.90
9414;DHT22;4746;35.664;139.738;2024-03-06T01:30:16;5.70;99.90
9414;DHT22;4746;35.664;139.738;2024-03-06T01:32:44;5.80;99.90
9414;DHT22;4746;35.664;139.738;2024-03-06T01:35:12;5.80;99.90
9414;DHT22;4746;35.664;139.738;2024-03-06T01:37:40;5.70;99.90
9414;DHT22;4746;35.664;139.738;2024-03-06T01:40:08;5.80;99.90
9414;DHT22;4746;35.664;139.738;2024-03-06T01:42:36;5.80;99.90
9414;DHT22;4746;35.664;139.738;2024-03-06T01:45:05;5.80;99.90
9414;DHT22;4746;35.664;139.738;2024-03-06T01:47:33;5.90;99.90
9414;DHT22;4746;35.664;139.738;2024-03-06T01:50:01;5.80;99.90
9414;DHT22;4746;35.664;139.738;2024-03-06T01:52:30;5.80;99.90
9414;DHT22;4746;35.664;139.738;2024-03-06T01:54:58;5.80;99.90
9414;DHT22;4746;35.664;139.738;2024-03-06T01:57:26;5.90;99.90
9414;DHT22;4746;35.664;139.738;2024-03-06T01:59:54;5.90;99.90
9414;DHT22;4746;35.664;139.738;2024-03-06T02:02:21;5.90;99.90
9414;DHT22;4746;35.664;139.738;2024-03-06T02:04:49;6.00;99.90
9414;DHT22;4746;35.664;139.738;2024-03-06T02:07:19;6.00;99.90
9414;DHT22;4746;35.664;139.738;2024-03-06T02:09:48;6.00;99.90
9414;DHT22;4746;35.664;139.738;2024-03-06T02:12:15;6.00;99.90
9414;DHT22;4746;35.664;139.738;2024-03-06T02:14:43;6.00;99.90
9414;DHT22;4746;35.664;139.738;2024-03-06T02:17:11;5.90;99.90
9414;DHT22;4746;35.664;139.738;2024-03-06T02:19:40;5.90;99.90
9414;DHT22;4746;35.664;139.738;2024-03-06T02:22:10;6.10;99.90
9414;DHT22;4746;35.664;139.738;2024-03-06T02:24:44;6.10;99.90
9414;DHT22;4746;35.664;139.738;2024-03-06T02:27:12;6.20;99.90
9414;DHT22;4746;35.664;139.738;2024-03-06T02:29:40;6.30;99.90
9414;DHT22;4746;35.664;139.738;2024-03-06T02:32:07;6.40;99.90
9414;DHT22;4746;35.664;139.738;2024-03-06T02:34:35;6.30;99.90
9414;DHT22;4746;35.664;139.738;2024-03-06T02:37:02;6.30;99.90
9414;DHT22;4746;35.664;139.738;2024-03-06T02:39:30;6.30;99.90
9414;DHT22;4746;35.664;139.738;2024-03-06T02:41:57;6.30;99.90
9414;DHT22;4746;35.664;139.738;2024-03-06T02:44:25;6.40;99.90
9414;DHT22;4746;35.664;139.738;2024-03-06T02:46:52;6.40;99.90
9414;DHT22;4746;35.664;139.738;2024-03-06T02:49:20;6.40;99.90
9414;DHT22;4746;35.664;139.738;2024-03-06T02:51:47;6.40;99.90
9414;DHT22;4746;35.664;139.738;2024-03-06T02:54:15;6.40;99.90
9414;DHT22;4746;35.664;139.738;2024-03-06T03:00:21;6.50;99.90
9414;DHT22;4746;35.664;139.738;2024-03-06T03:02:49;6.50;99.90
9414;DHT22;4746;35.664;139.738;2024-03-06T03:05:17;6.50;99.90
9414;DHT22;4746;35.664;139.738;2024-03-06T03:07:44;6.70;99.90
9414;DHT22;4746;35.664;139.738;2024-03-06T03:10:12;6.80;99.90
9414;DHT22;4746;35.664;139.738;2024-03-06T03:12:39;6.90;99.90
9414;DHT22;4746;35.664;139.738;2024-03-06T03:15:08;6.80;99.90
9414;DHT22;4746;35.664;139.738;2024-03-06T03:17:36;6.80;99.90
9414;DHT22;4746;35.664;139.738;2024-03-06T03:20:04;6.90;99.90
9414;DHT22;4746;35.664;139.738;2024-03-06T03:22:42;7.00;99.90
9414;DHT22;4746;35.664;139.738;2024-03-06T03:25:10;7.10;99.90
9414;DHT22;4746;35.664;139.738;2024-03-06T03:27:39;7.20;99.90
9414;DHT22;4746;35.664;139.738;2024-03-06T03:30:08;7.30;99.90
9414;DHT22;4746;35.664;139.738;2024-03-06T03:32:37;7.40;99.90
9414;DHT22;4746;35.664;139.738;2024-03-06T03:35:06;7.40;99.90
9414;DHT22;4746;35.664;139.738;2024-03-06T03:37:35;7.50;99.90
9414;DHT22;4746;35.664;139.738;2024-03-06T03:40:02;7.50;99.90
9414;DHT22;4746;35.664;139.738;2024-03-06T03:42:30;7.60;99.90
9414;DHT22;4746;35.664;139.738;2024-03-06T03:44:59;7.70;99.90
9414;DHT22;4746;35.664;139.738;2024-03-06T03:47:26;7.70;99.90
9414;DHT22;4746;35.664;139.738;2024-03-06T03:49:54;7.70;99.90
9414;DHT22;4746;35.664;139.738;2024-03-06T03:52:21;7.80;99.90
9414;DHT22;4746;35.664;139.738;2024-03-06T03:54:49;7.90;99.90
9414;DHT22;4746;35.664;139.738;2024-03-06T03:57:16;8.00;99.90
9414;DHT22;4746;35.664;139.738;2024-03-06T03:59:44;8.00;99.90
9414;DHT22;4746;35.664;139.738;2024-03-06T04:02:11;8.10;99.90
9414;DHT22;4746;35.664;139.738;2024-03-06T04:04:39;8.30;99.90
9414;DHT22;4746;35.664;139.738;2024-03-06T04:07:08;8.30;99.90
9414;DHT22;4746;35.664;139.738;2024-03-06T04:09:35;8.50;99.90
9414;DHT22;4746;35.664;139.738;2024-03-06T04:12:03;8.60;99.90
9414;DHT22;4746;35.664;139.738;2024-03-06T04:14:31;8.50;99.90
9414;DHT22;4746;35.664;139.738;2024-03-06T04:16:58;8.60;99.90
9414;DHT22;4746;35.664;139.738;2024-03-06T04:19:26;8.70;99.90
9414;DHT22;4746;35.664;139.738;2024-03-06T04:21:53;8.70;99.90
9414;DHT22;4746;35.664;139.738;2024-03-06T04:24:21;8.70;99.90
9414;DHT22;4746;35.664;139.738;2024-03-06T04:26:49;8.80;99.90
9414;DHT22;4746;35.664;139.738;2024-03-06T04:29:16;8.80;99.90
9414;DHT22;4746;35.664;139.738;2024-03-06T04:31:43;8.90;99.90
9414;DHT22;4746;35.664;139.738;2024-03-06T04:34:11;9.00;99.90
9414;DHT22;4746;35.664;139.738;2024-03-06T04:36:38;9.20;99.90
9414;DHT22;4746;35.664;139.738;2024-03-06T04:39:06;9.40;99.90
9414;DHT22;4746;35.664;139.738;2024-03-06T04:41:34;9.40;99.90
9414;DHT22;4746;35.664;139.738;2024-03-06T04:44:03;9.60;99.90
9414;DHT22;4746;35.664;139.738;2024-03-06T04:46:31;9.80;99.90
9414;DHT22;4746;35.664;139.738;2024-03-06T04:48:59;9.90;99.90
9414;DHT22;4746;35.664;139.738;2024-03-06T04:51:26;10.20;99.90
9414;DHT22;4746;35.664;139.738;2024-03-06T04:53:54;10.30;99.90
9414;DHT22;4746;35.664;139.738;2024-03-06T04:56:21;10.40;99.90
9414;DHT22;4746;35.664;139.738;2024-03-06T04:58:49;10.30;99.90
9414;DHT22;4746;35.664;139.738;2024-03-06T05:01:18;10.30;99.90
9414;DHT22;4746;35.664;139.738;2024-03-06T05:03:45;10.20;99.90
9414;DHT22;4746;35.664;139.738;2024-03-06T05:06:13;10.00;99.90
9414;DHT22;4746;35.664;139.738;2024-03-06T05:08:40;10.00;99.90
9414;DHT22;4746;35.664;139.738;2024-03-06T05:11:08;9.90;99.90
9414;DHT22;4746;35.664;139.738;2024-03-06T05:13:35;9.90;99.90
9414;DHT22;4746;35.664;139.738;2024-03-06T05:16:03;10.00;99.90
9414;DHT22;4746;35.664;139.738;2024-03-06T05:18:30;10.10;99.90
9414;DHT22;4746;35.664;139.738;2024-03-06T05:20:59;10.40;99.90
9414;DHT22;4746;35.664;139.738;2024-03-06T05:23:26;10.60;99.90
9414;DHT22;4746;35.664;139.738;2024-03-06T05:25:54;10.80;99.90
9414;DHT22;4746;35.664;139.738;2024-03-06T05:28:21;11.10;99.90
9414;DHT22;4746;35.664;139.738;2024-03-06T05:30:49;11.20;99.90
9414;DHT22;4746;35.664;139.738;2024-03-06T05:33:16;11.50;99.90
9414;DHT22;4746;35.664;139.738;2024-03-06T05:35:44;11.80;99.90
9414;DHT22;4746;35.664;139.738;2024-03-06T05:38:11;12.40;99.90
9414;DHT22;4746;35.664;139.738;2024-03-06T05:40:39;12.90;99.90
9414;DHT22;4746;35.664;139.738;2024-03-06T05:43:10;13.60;99.90
9414;DHT22;4746;35.664;139.738;2024-03-06T05:45:37;13.90;99.90
9414;DHT22;4746;35.664;139.738;2024-03-06T05:48:05;14.20;99.90
9414;DHT22;4746;35.664;139.738;2024-03-06T05:50:34;14.20;99.90
9414;DHT22;4746;35.664;139.738;2024-03-06T05:53:01;14.40;99.90
9414;DHT22;4746;35.664;139.738;2024-03-06T05:55:29;14.70;99.90
9414;DHT22;4746;35.664;139.738;2024-03-06T05:57:56;15.00;99.90
9414;DHT22;4746;35.664;139.738;2024-03-06T06:00:25;15.00;99.90
9414;DHT22;4746;35.664;139.738;2024-03-06T06:02:53;15.00;99.90
9414;DHT22;4746;35.664;139.738;2024-03-06T06:05:20;14.70;99.90
9414;DHT22;4746;35.664;139.738;2024-03-06T06:07:49;14.50;99.90
9414;DHT22;4746;35.664;139.738;2024-03-06T06:10:18;14.80;99.90
9414;DHT22;4746;35.664;139.738;2024-03-06T06:12:47;15.50;99.90
9414;DHT22;4746;35.664;139.738;2024-03-06T06:15:15;16.00;99.90
9414;DHT22;4746;35.664;139.738;2024-03-06T06:17:43;16.50;99.90
9414;DHT22;4746;35.664;139.738;2024-03-06T06:20:12;16.20;99.90
9414;DHT22;4746;35.664;139.738;2024-03-06T06:22:44;15.80;99.90
9414;DHT22;4746;35.664;139.738;2024-03-06T06:25:12;15.30;99.90
9414;DHT22;4746;35.664;139.738;2024-03-06T06:27:39;14.90;99.90
9414;DHT22;4746;35.664;139.738;2024-03-06T06:30:08;14.40;99.90
9414;DHT22;4746;35.664;139.738;2024-03-06T06:32:41;14.10;99.90
9414;DHT22;4746;35.664;139.738;2024-03-06T06:35:10;13.70;99.90
9414;DHT22;4746;35.664;139.738;2024-03-06T06:37:40;13.30;99.90
9414;DHT22;4746;35.664;139.738;2024-03-06T06:40:08;13.10;99.90
9414;DHT22;4746;35.664;139.738;2024-03-06T06:42:43;12.90;99.90
9414;DHT22;4746;35.664;139.738;2024-03-06T06:45:19;12.70;99.90
9414;DHT22;4746;35.664;139.738;2024-03-06T06:47:51;12.50;99.90
9414;DHT22;4746;35.664;139.738;2024-03-06T06:50:19;12.20;99.90
9414;DHT22;4746;35.664;139.738;2024-03-06T06:52:52;12.00;99.90
9414;DHT22;4746;35.664;139.738;2024-03-06T06:55:20;11.90;99.90
9414;DHT22;4746;35.664;139.738;2024-03-06T06:57:50;11.80;99.90
9414;DHT22;4746;35.664;139.738;2024-03-06T07:00:17;11.80;99.90
9414;DHT22;4746;35.664;139.738;2024-03-06T07:02:48;11.70;99.90
9414;DHT22;4746;35.664;139.738;2024-03-06T07:05:17;11.60;99.90
9414;DHT22;4746;35.664;139.738;2024-03-06T07:07:44;11.50;99.90
9414;DHT22;4746;35.664;139.738;2024-03-06T07:10:12;11.30;99.90
9414;DHT22;4746;35.664;139.738;2024-03-06T07:12:40;11.10;99.90
9414;DHT22;4746;35.664;139.738;2024-03-06T07:15:08;11.00;99.90
9414;DHT22;4746;35.664;139.738;2024-03-06T07:17:36;10.90;99.90
9414;DHT22;4746;35.664;139.738;2024-03-06T07:20:03;10.90;99.90
9414;DHT22;4746;35.664;139.738;2024-03-06T07:22:32;10.90;99.90
9414;DHT22;4746;35.664;139.738;2024-03-06T07:25:01;10.90;99.90
9414;DHT22;4746;35.664;139.738;2024-03-06T07:27:28;10.80;99.90
9414;DHT22;4746;35.664;139.738;2024-03-06T07:29:56;10.70;99.90
9414;DHT22;4746;35.664;139.738;2024-03-06T07:32:23;10.70;99.90
9414;DHT22;4746;35.664;139.738;2024-03-06T07:34:51;10.60;99.90
9414;DHT22;4746;35.664;139.738;2024-03-06T07:37:19;10.50;99.90
9414;DHT22;4746;35.664;139.738;2024-03-06T07:39:47;10.50;99.90
9414;DHT22;4746;35.664;139.738;2024-03-06T07:42:15;10.40;99.90
9414;DHT22;4746;35.664;139.738;2024-03-06T07:44:44;10.40;99.90
9414;DHT22;4746;35.664;139.738;2024-03-06T07:47:11;10.30;99.90
9414;DHT22;4746;35.664;139.738;2024-03-06T07:49:40;10.20;99.90
9414;DHT22;4746;35.664;139.738;2024-03-06T07:52:10;10.20;99.90
9414;DHT22;4746;35.664;139.738;2024-03-06T07:54:38;10.20;99.90
9414;DHT22;4746;35.664;139.738;2024-03-06T07:57:05;10.20;99.90
9414;DHT22;4746;35.664;139.738;2024-03-06T07:59:33;10.20;99.90
9414;DHT22;4746;35.664;139.738;2024-03-06T08:02:00;10.30;99.90
9414;DHT22;4746;35.664;139.738;2024-03-06T08:04:28;10.20;99.90
9414;DHT22;4746;35.664;139.738;2024-03-06T08:06:56;10.20;99.90
9414;DHT22;4746;35.664;139.738;2024-03-06T08:09:25;10.20;99.90
9414;DHT22;4746;35.664;139.738;2024-03-06T08:11:55;10.10;99.90
9414;DHT22;4746;35.664;139.738;2024-03-06T08:14:22;10.20;99.90
9414;DHT22;4746;35.664;139.738;2024-03-06T08:16:50;10.20;99.90
9414;DHT22;4746;35.664;139.738;2024-03-06T08:19:17;10.10;99.90
9414;DHT22;4746;35.664;139.738;2024-03-06T08:21:45;10.00;99.90
9414;DHT22;4746;35.664;139.738;2024-03-06T08:24:13;9.90;99.90
9414;DHT22;4746;35.664;139.738;2024-03-06T08:26:41;9.90;99.90
9414;DHT22;4746;35.664;139.738;2024-03-06T08:29:09;9.90;99.90
9414;DHT22;4746;35.664;139.738;2024-03-06T08:31:36;9.90;99.90
9414;DHT22;4746;35.664;139.738;2024-03-06T08:34:04;9.90;99.90
9414;DHT22;4746;35.664;139.738;2024-03-06T08:36:31;9.90;99.90
9414;DHT22;4746;35.664;139.738;2024-03-06T08:38:59;9.90;99.90
9414;DHT22;4746;35.664;139.738;2024-03-06T08:41:26;9.90;99.90
9414;DHT22;4746;35.664;139.738;2024-03-06T08:43:55;10.00;99.90
9414;DHT22;4746;35.664;139.738;2024-03-06T08:46:22;10.00;99.90
9414;DHT22;4746;35.664;139.738;2024-03-06T08:48:50;10.00;99.90
9414;DHT22;4746;35.664;139.738;2024-03-06T08:51:18;10.00;99.90
9414;DHT22;4746;35.664;139.738;2024-03-06T08:53:48;10.10;99.90
9414;DHT22;4746;35.664;139.738;2024-03-06T08:56:15;10.00;99.90
9414;DHT22;4746;35.664;139.738;2024-03-06T08:58:43;10.00;99.90
9414;DHT22;4746;35.664;139.738;2024-03-06T09:01:11;10.00;99.90
9414;DHT22;4746;35.664;139.738;2024-03-06T09:03:39;10.00;99.90
9414;DHT22;4746;35.664;139.738;2024-03-06T09:06:07;9.90;99.90
9414;DHT22;4746;35.664;139.738;2024-03-06T09:08:37;9.90;99.90
9414;DHT22;4746;35.664;139.738;2024-03-06T09:11:04;9.90;99.90
9414;DHT22;4746;35.664;139.738;2024-03-06T09:13:32;9.90;99.90
9414;DHT22;4746;35.664;139.738;2024-03-06T09:15:59;9.90;99.90
9414;DHT22;4746;35.664;139.738;2024-03-06T09:18:27;9.90;99.90
9414;DHT22;4746;35.664;139.738;2024-03-06T09:20:55;9.90;99.90
9414;DHT22;4746;35.664;139.738;2024-03-06T09:23:23;10.00;99.90
9414;DHT22;4746;35.664;139.738;2024-03-06T09:25:52;10.00;99.90
9414;DHT22;4746;35.664;139.738;2024-03-06T09:28:20;10.00;99.90
9414;DHT22;4746;35.664;139.738;2024-03-06T09:30:49;10.00;99.90
9414;DHT22;4746;35.664;139.738;2024-03-06T09:33:16;10.00;99.90
9414;DHT22;4746;35.664;139.738;2024-03-06T09:35:44;10.00;99.90
9414;DHT22;4746;35.664;139.738;2024-03-06T09:38:12;10.00;99.90
9414;DHT22;4746;35.664;139.738;2024-03-06T09:40:40;10.00;99.90
9414;DHT22;4746;35.664;139.738;2024-03-06T09:43:08;10.00;99.90
9414;DHT22;4746;35.664;139.738;2024-03-06T09:45:37;10.00;99.90
9414;DHT22;4746;35.664;139.738;2024-03-06T09:48:09;10.00;99.90
9414;DHT22;4746;35.664;139.738;2024-03-06T09:50:40;10.00;99.90
9414;DHT22;4746;35.664;139.738;2024-03-06T09:53:16;10.10;99.90
9414;DHT22;4746;35.664;139.738;2024-03-06T09:55:46;10.00;99.90
9414;DHT22;4746;35.664;139.738;2024-03-06T09:58:16;10.00;99.90
9414;DHT22;4746;35.664;139.738;2024-03-06T10:00:44;10.10;99.90
9414;DHT22;4746;35.664;139.738;2024-03-06T10:03:14;10.10;99.90
9414;DHT22;4746;35.664;139.738;2024-03-06T10:05:42;10.10;99.90
9414;DHT22;4746;35.664;139.738;2024-03-06T10:08:09;10.10;99.90
9414;DHT22;4746;35.664;139.738;2024-03-06T10:10:37;10.10;99.90
9414;DHT22;4746;35.664;139.738;2024-03-06T10:13:05;10.00;99.90
9414;DHT22;4746;35.664;139.738;2024-03-06T10:15:33;10.00;99.90
9414;DHT22;4746;35.664;139.738;2024-03-06T10:18:16;9.90;99.90
9414;DHT22;4746;35.664;139.738;2024-03-06T10:20:47;9.90;99.90
9414;DHT22;4746;35.664;139.738;2024-03-06T10:23:15;9.90;99.90
9414;DHT22;4746;35.664;139.738;2024-03-06T10:25:46;9.90;99.90
9414;DHT22;4746;35.664;139.738;2024-03-06T10:28:20;9.90;99.90
9414;DHT22;4746;35.664;139.738;2024-03-06T10:31:02;9.90;99.90
9414;DHT22;4746;35.664;139.738;2024-03-06T10:33:36;9.80;99.90
9414;DHT22;4746;35.664;139.738;2024-03-06T10:36:05;9.80;99.90
9414;DHT22;4746;35.664;139.738;2024-03-06T10:38:39;9.70;99.90
9414;DHT22;4746;35.664;139.738;2024-03-06T10:41:15;9.70;99.90
9414;DHT22;4746;35.664;139.738;2024-03-06T10:43:48;9.70;99.90
9414;DHT22;4746;35.664;139.738;2024-03-06T10:46:21;9.70;99.90
9414;DHT22;4746;35.664;139.738;2024-03-06T10:48:50;9.80;99.90
9414;DHT22;4746;35.664;139.738;2024-03-06T10:51:20;9.80;99.90
9414;DHT22;4746;35.664;139.738;2024-03-06T10:53:50;9.80;99.90
9414;DHT22;4746;35.664;139.738;2024-03-06T10:56:19;9.80;99.90
9414;DHT22;4746;35.664;139.738;2024-03-06T10:58:51;9.80;99.90
9414;DHT22;4746;35.664;139.738;2024-03-06T11:01:24;9.80;99.90
9414;DHT22;4746;35.664;139.738;2024-03-06T11:03:53;9.80;99.90
9414;DHT22;4746;35.664;139.738;2024-03-06T11:06:29;9.80;99.90
9414;DHT22;4746;35.664;139.738;2024-03-06T11:08:58;9.80;99.90
9414;DHT22;4746;35.664;139.738;2024-03-06T11:11:28;9.80;99.90
9414;DHT22;4746;35.664;139.738;2024-03-06T11:14:04;9.70;99.90
9414;DHT22;4746;35.664;139.738;2024-03-06T11:19:31;9.80;99.90
9414;DHT22;4746;35.664;139.738;2024-03-06T11:28:25;9.30;99.90
9414;DHT22;4746;35.664;139.738;2024-03-06T11:30:57;9.30;99.90
9414;DHT22;4746;35.664;139.738;2024-03-06T11:33:43;9.20;99.90
9414;DHT22;4746;35.664;139.738;2024-03-06T11:36:27;9.10;99.90
9414;DHT22;4746;35.664;139.738;2024-03-06T11:39:05;9.10;99.90
9414;DHT22;4746;35.664;139.738;2024-03-06T11:44:17;9.10;99.90
9414;DHT22;4746;35.664;139.738;2024-03-06T11:47:03;9.10;99.90
9414;DHT22;4746;35.664;139.738;2024-03-06T11:49:35;9.10;99.90
9414;DHT22;4746;35.664;139.738;2024-03-06T11:52:09;9.10;99.90
9414;DHT22;4746;35.664;139.738;2024-03-06T11:54:38;9.00;99.90
9414;DHT22;4746;35.664;139.738;2024-03-06T11:57:06;8.90;99.90
9414;DHT22;4746;35.664;139.738;2024-03-06T11:59:37;8.90;99.90
9414;DHT22;4746;35.664;139.738;2024-03-06T12:02:06;8.90;99.90
9414;DHT22;4746;35.664;139.738;2024-03-06T12:04:37;8.80;99.90
9414;DHT22;4746;35.664;139.738;2024-03-06T12:07:05;8.80;99.90
9414;DHT22;4746;35.664;139.738;2024-03-06T12:09:37;8.80;99.90
9414;DHT22;4746;35.664;139.738;2024-03-06T12:12:07;8.80;99.90
9414;DHT22;4746;35.664;139.738;2024-03-06T12:14:37;8.70;99.90
9414;DHT22;4746;35.664;139.738;2024-03-06T12:17:06;8.70;99.90
9414;DHT22;4746;35.664;139.738;2024-03-06T12:19:39;8.60;99.90
9414;DHT22;4746;35.664;139.738;2024-03-06T12:22:14;8.70;99.90
9414;DHT22;4746;35.664;139.738;2024-03-06T12:24:45;8.50;99.90
9414;DHT22;4746;35.664;139.738;2024-03-06T12:27:24;8.60;99.90
9414;DHT22;4746;35.664;139.738;2024-03-06T12:29:56;8.60;99.90
9414;DHT22;4746;35.664;139.738;2024-03-06T12:32:24;8.60;99.90
9414;DHT22;4746;35.664;139.738;2024-03-06T12:34:59;8.70;99.90
9414;DHT22;4746;35.664;139.738;2024-03-06T12:37:32;8.60;99.90
9414;DHT22;4746;35.664;139.738;2024-03-06T12:40:02;8.50;99.90
9414;DHT22;4746;35.664;139.738;2024-03-06T12:42:31;8.50;99.90
9414;DHT22;4746;35.664;139.738;2024-03-06T12:45:00;8.50;99.90
9414;DHT22;4746;35.664;139.738;2024-03-06T12:47:31;8.40;99.90
9414;DHT22;4746;35.664;139.738;2024-03-06T12:49:59;8.40;99.90
9414;DHT22;4746;35.664;139.738;2024-03-06T12:52:28;8.40;99.90
9414;DHT22;4746;35.664;139.738;2024-03-06T12:54:57;8.40;99.90
9414;DHT22;4746;35.664;139.738;2024-03-06T12:57:26;8.40;99.90
9414;DHT22;4746;35.664;139.738;2024-03-06T12:59:57;8.40;99.90
9414;DHT22;4746;35.664;139.738;2024-03-06T13:02:26;8.50;99.90
9414;DHT22;4746;35.664;139.738;2024-03-06T13:04:55;8.50;99.90
9414;DHT22;4746;35.664;139.738;2024-03-06T13:07:23;8.50;99.90
9414;DHT22;4746;35.664;139.738;2024-03-06T13:09:53;8.50;99.90
9414;DHT22;4746;35.664;139.738;2024-03-06T13:12:22;8.40;99.90
9414;DHT22;4746;35.664;139.738;2024-03-06T13:14:51;8.40;99.90
9414;DHT22;4746;35.664;139.738;2024-03-06T13:17:20;8.30;99.90
9414;DHT22;4746;35.664;139.738;2024-03-06T13:19:50;8.30;99.90
9414;DHT22;4746;35.664;139.738;2024-03-06T13:22:18;8.30;99.90
9414;DHT22;4746;35.664;139.738;2024-03-06T13:24:47;8.30;99.90
9414;DHT22;4746;35.664;139.738;2024-03-06T13:27:16;8.30;99.90
9414;DHT22;4746;35.664;139.738;2024-03-06T13:29:45;8.40;99.90
9414;DHT22;4746;35.664;139.738;2024-03-06T13:32:14;8.40;99.90
9414;DHT22;4746;35.664;139.738;2024-03-06T13:34:43;8.40;99.90
9414;DHT22;4746;35.664;139.738;2024-03-06T13:37:12;8.40;99.90
9414;DHT22;4746;35.664;139.738;2024-03-06T13:39:41;8.40;99.90
9414;DHT22;4746;35.664;139.738;2024-03-06T13:42:13;8.30;99.90
9414;DHT22;4746;35.664;139.738;2024-03-06T13:44:42;8.40;99.90
9414;DHT22;4746;35.664;139.738;2024-03-06T13:47:15;8.40;99.90
9414;DHT22;4746;35.664;139.738;2024-03-06T13:49:44;8.40;99.90
9414;DHT22;4746;35.664;139.738;2024-03-06T13:52:13;8.40;99.90
9414;DHT22;4746;35.664;139.738;2024-03-06T13:54:42;8.30;99.90
9414;DHT22;4746;35.664;139.738;2024-03-06T13:57:11;8.30;99.90
9414;DHT22;4746;35.664;139.738;2024-03-06T13:59:40;8.30;99.90
9414;DHT22;4746;35.664;139.738;2024-03-06T14:02:13;8.20;99.90
9414;DHT22;4746;35.664;139.738;2024-03-06T14:04:43;8.20;99.90
9414;DHT22;4746;35.664;139.738;2024-03-06T14:07:12;8.20;99.90
9414;DHT22;4746;35.664;139.738;2024-03-06T14:09:41;8.20;99.90
9414;DHT22;4746;35.664;139.738;2024-03-06T14:12:09;8.10;99.90
9414;DHT22;4746;35.664;139.738;2024-03-06T14:14:38;8.10;99.90
9414;DHT22;4746;35.664;139.738;2024-03-06T14:17:08;8.10;99.90
9414;DHT22;4746;35.664;139.738;2024-03-06T14:19:38;8.10;99.90
9414;DHT22;4746;35.664;139.738;2024-03-06T14:22:08;8.10;99.90
9414;DHT22;4746;35.664;139.738;2024-03-06T14:24:37;8.10;99.90
9414;DHT22;4746;35.664;139.738;2024-03-06T14:27:06;8.10;99.90
9414;DHT22;4746;35.664;139.738;2024-03-06T14:29:35;8.20;99.90
9414;DHT22;4746;35.664;139.738;2024-03-06T14:32:04;8.30;99.90
9414;DHT22;4746;35.664;139.738;2024-03-06T14:34:33;8.20;99.90
9414;DHT22;4746;35.664;139.738;2024-03-06T14:37:02;8.20;99.90
9414;DHT22;4746;35.664;139.738;2024-03-06T14:39:32;8.20;99.90
9414;DHT22;4746;35.664;139.738;2024-03-06T14:42:00;8.20;99.90
9414;DHT22;4746;35.664;139.738;2024-03-06T14:44:31;8.20;99.90
9414;DHT22;4746;35.664;139.738;2024-03-06T14:46:59;8.20;99.90
9414;DHT22;4746;35.664;139.738;2024-03-06T14:49:29;8.30;99.90
9414;DHT22;4746;35.664;139.738;2024-03-06T14:51:58;8.30;99.90
9414;DHT22;4746;35.664;139.738;2024-03-06T14:54:29;8.30;99.90
9414;DHT22;4746;35.664;139.738;2024-03-06T14:56:57;8.20;99.90
9414;DHT22;4746;35.664;139.738;2024-03-06T14:59:26;8.20;99.90
9414;DHT22;4746;35.664;139.738;2024-03-06T15:01:54;8.30;99.90
9414;DHT22;4746;35.664;139.738;2024-03-06T15:04:27;8.20;99.90
9414;DHT22;4746;35.664;139.738;2024-03-06T15:06:55;8.20;99.90
9414;DHT22;4746;35.664;139.738;2024-03-06T15:09:27;8.20;99.90
9414;DHT22;4746;35.664;139.738;2024-03-06T15:11:56;8.20;99.90
9414;DHT22;4746;35.664;139.738;2024-03-06T15:14:26;8.10;99.90
9414;DHT22;4746;35.664;139.738;2024-03-06T15:16:58;8.00;99.90
9414;DHT22;4746;35.664;139.738;2024-03-06T15:19:28;8.00;99.90
9414;DHT22;4746;35.664;139.738;2024-03-06T15:21:57;8.10;99.90
9414;DHT22;4746;35.664;139.738;2024-03-06T15:24:30;8.10;99.90
9414;DHT22;4746;35.664;139.738;2024-03-06T15:26:59;8.10;99.90
9414;DHT22;4746;35.664;139.738;2024-03-06T15:29:26;8.20;99.90
9414;DHT22;4746;35.664;139.738;2024-03-06T15:31:54;8.20;99.90
9414;DHT22;4746;35.664;139.738;2024-03-06T15:34:22;8.20;99.90
9414;DHT22;4746;35.664;139.738;2024-03-06T15:36:51;8.10;99.90
9414;DHT22;4746;35.664;139.738;2024-03-06T15:39:19;8.00;99.90
9414;DHT22;4746;35.664;139.738;2024-03-06T15:41:50;8.00;99.90
9414;DHT22;4746;35.664;139.738;2024-03-06T15:44:19;8.00;99.90
9414;DHT22;4746;35.664;139.738;2024-03-06T15:46:47;8.00;99.90
9414;DHT22;4746;35.664;139.738;2024-03-06T15:49:23;8.00;99.90
9414;DHT22;4746;35.664;139.738;2024-03-06T15:51:51;7.90;99.90
9414;DHT22;4746;35.664;139.738;2024-03-06T15:54:21;7.90;99.90
9414;DHT22;4746;35.664;139.738;2024-03-06T15:56:49;8.00;99.90
9414;DHT22;4746;35.664;139.738;2024-03-06T15:59:18;8.00;99.90
9414;DHT22;4746;35.664;139.738;2024-03-06T16:01:45;7.90;99.90
9414;DHT22;4746;35.664;139.738;2024-03-06T16:04:14;8.00;99.90
9414;DHT22;4746;35.664;139.738;2024-03-06T16:06:45;8.00;99.90
9414;DHT22;4746;35.664;139.738;2024-03-06T16:09:14;8.00;99.90